Time;durP1;ratioP1;P1;durP2;ratioP2;P2;SDS_P1;SDS_P2;PMS_P1;PMS_P2;Temp;Humidity;BMP_temperature;BMP_pressure;BME280_temperature;BME280_humidity;BME280_pressure;Samples;Min_cycle;Max_cycle;Signal;HPM_P1;HPM_P2
2023/04/12 00:00:16;;;;;;;3.30;2.00;;;;;;;;;;4992482;28;20026;-67
2023/04/12 00:02:43;;;;;;;3.08;1.52;;;;;;;;;;4992742;28;20482;-67
2023/04/12 00:05:10;;;;;;;2.33;1.60;;;;;;;;;;4992592;28;20482;-67
2023/04/12 00:07:38;;;;;;;4.40;2.13;;;;;;;;;;4992212;28;20570;-67
2023/04/12 00:10:07;;;;;;;2.15;1.40;;;;;;;;;;4987147;28;20045;-67
2023/04/12 00:12:34;;;;;;;3.75;1.70;;;;;;;;;;4987469;28;20033;-67
2023/04/12 00:15:01;;;;;;;3.60;1.80;;;;;;;;;;4987455;28;20110;-67
2023/04/12 00:17:28;;;;;;;3.17;1.70;;;;;;;;;;4987453;28;20050;-67
2023/04/12 00:19:56;;;;;;;2.40;1.60;;;;;;;;;;4992132;28;20488;-67
2023/04/12 00:22:23;;;;;;;1.85;1.35;;;;;;;;;;4992629;28;20018;-67
2023/04/12 00:24:52;;;;;;;3.95;1.95;;;;;;;;;;4992472;28;20027;-67
2023/04/12 00:27:19;;;;;;;3.80;2.00;;;;;;;;;;4995047;28;20026;-67
2023/04/12 00:29:46;;;;;;;3.30;1.83;;;;;;;;;;4995736;28;20066;-67
2023/04/12 00:32:13;;;;;;;2.85;1.80;;;;;;;;;;4991008;28;20034;-67
2023/04/12 00:34:40;;;;;;;2.57;1.80;;;;;;;;;;4990814;28;20027;-67
2023/04/12 00:37:07;;;;;;;2.80;1.73;;;;;;;;;;4990924;28;20027;-67
2023/04/12 00:39:34;;;;;;;3.40;2.30;;;;;;;;;;4990741;28;20041;-67
2023/04/12 00:42:04;;;;;;;8.50;1.97;;;;;;;;;;4994731;28;20081;-67
2023/04/12 00:44:32;;;;;;;5.03;2.33;;;;;;;;;;4995382;28;20101;-67
2023/04/12 00:46:59;;;;;;;3.40;1.70;;;;;;;;;;4995551;28;20359;-67
2023/04/12 00:49:29;;;;;;;2.33;1.77;;;;;;;;;;4995566;28;20038;-67
2023/04/12 00:52:04;;;;;;;2.97;2.10;;;;;;;;;;4995606;28;20495;-67
2023/04/12 00:54:31;;;;;;;2.63;1.47;;;;;;;;;;4990701;28;20046;-67
2023/04/12 00:56:58;;;;;;;14.27;2.13;;;;;;;;;;4990542;28;20033;-67
2023/04/12 00:59:25;;;;;;;5.87;2.50;;;;;;;;;;4990395;28;20022;-67
2023/04/12 01:01:53;;;;;;;3.80;2.60;;;;;;;;;;4990265;28;20034;-68
2023/04/12 01:04:21;;;;;;;2.80;2.00;;;;;;;;;;4994121;28;20365;-67
2023/04/12 01:07:02;;;;;;;6.87;2.63;;;;;;;;;;4995288;28;20031;-67
2023/04/12 01:09:36;;;;;;;3.50;2.60;;;;;;;;;;4995253;28;20413;-67
2023/04/12 01:12:12;;;;;;;4.93;2.40;;;;;;;;;;4995386;28;20073;-67
2023/04/12 01:14:43;;;;;;;2.90;2.10;;;;;;;;;;4995251;28;20050;-67
2023/04/12 01:17:13;;;;;;;3.63;2.37;;;;;;;;;;4990012;28;20026;-67
2023/04/12 01:19:44;;;;;;;5.93;2.20;;;;;;;;;;4989858;28;20555;-67
2023/04/12 01:22:13;;;;;;;6.27;2.87;;;;;;;;;;4990102;28;20080;-67
2023/04/12 01:24:46;;;;;;;3.00;2.27;;;;;;;;;;4989959;28;20023;-67
2023/04/12 01:27:32;;;;;;;7.07;2.30;;;;;;;;;;4994665;28;20105;-67
2023/04/12 01:30:00;;;;;;;6.00;3.20;;;;;;;;;;4994991;28;20069;-67
2023/04/12 01:32:29;;;;;;;3.87;2.13;;;;;;;;;;4994721;28;20101;-67
2023/04/12 01:34:57;;;;;;;2.40;1.80;;;;;;;;;;4994673;28;20034;-67
2023/04/12 01:37:24;;;;;;;4.07;2.73;;;;;;;;;;4993065;28;20026;-67
2023/04/12 01:39:51;;;;;;;4.97;2.60;;;;;;;;;;4989765;28;20065;-67
2023/04/12 01:42:21;;;;;;;3.77;2.67;;;;;;;;;;4989455;28;20037;-67
2023/04/12 01:44:47;;;;;;;3.87;2.47;;;;;;;;;;4989640;28;20080;-67
2023/04/12 01:47:14;;;;;;;3.27;2.13;;;;;;;;;;4989598;28;20022;-67
2023/04/12 01:49:57;;;;;;;4.70;2.07;;;;;;;;;;4994644;28;20023;-67
2023/04/12 01:52:27;;;;;;;20.77;2.33;;;;;;;;;;4994235;28;20378;-66
2023/04/12 01:54:57;;;;;;;6.43;2.57;;;;;;;;;;4994199;28;20029;-67
2023/04/12 01:57:25;;;;;;;3.07;2.13;;;;;;;;;;4994405;28;20101;-67
2023/04/12 01:59:53;;;;;;;2.30;1.63;;;;;;;;;;4993556;28;20381;-67
2023/04/12 02:02:20;;;;;;;4.47;1.93;;;;;;;;;;4989288;28;20030;-67
2023/04/12 02:04:47;;;;;;;6.43;2.63;;;;;;;;;;4989494;28;20083;-67
2023/04/12 02:07:17;;;;;;;8.20;3.30;;;;;;;;;;4989035;28;20101;-67
2023/04/12 02:09:44;;;;;;;5.40;2.50;;;;;;;;;;4989246;28;20478;-67
2023/04/12 02:12:11;;;;;;;4.10;2.17;;;;;;;;;;4994097;28;20026;-67
2023/04/12 02:14:38;;;;;;;5.07;2.43;;;;;;;;;;4993980;28;20026;-67
2023/04/12 02:17:06;;;;;;;4.50;2.27;;;;;;;;;;4994036;28;20018;-67
2023/04/12 02:19:33;;;;;;;1.80;1.47;;;;;;;;;;4993988;28;20371;-67
2023/04/12 02:22:01;;;;;;;6.47;2.93;;;;;;;;;;4993819;28;20023;-67
2023/04/12 02:24:28;;;;;;;7.93;2.60;;;;;;;;;;4988461;28;20058;-67
2023/04/12 02:26:55;;;;;;;4.97;3.00;;;;;;;;;;4988949;28;20097;-67
2023/04/12 02:29:22;;;;;;;4.23;2.57;;;;;;;;;;4988629;28;20541;-66
2023/04/12 02:31:50;;;;;;;3.53;2.03;;;;;;;;;;4988657;28;20066;-67
2023/04/12 02:34:16;;;;;;;7.23;2.83;;;;;;;;;;4993284;28;20458;-67
2023/04/12 02:36:47;;;;;;;5.33;2.20;;;;;;;;;;4993647;28;20462;-67
2023/04/12 02:39:17;;;;;;;3.20;2.30;;;;;;;;;;4993538;28;20022;-66
2023/04/12 02:41:44;;;;;;;3.63;2.53;;;;;;;;;;4993094;28;20023;-67
2023/04/12 02:44:11;;;;;;;6.57;3.10;;;;;;;;;;4993499;28;20434;-66
2023/04/12 02:46:38;;;;;;;3.10;2.03;;;;;;;;;;4988388;28;20033;-66
2023/04/12 02:49:04;;;;;;;6.37;2.30;;;;;;;;;;4987720;28;20025;-67
2023/04/12 02:51:31;;;;;;;2.83;1.93;;;;;;;;;;4988232;28;20034;-67
2023/04/12 02:53:58;;;;;;;2.93;2.10;;;;;;;;;;4988235;28;20477;-66
2023/04/12 02:56:24;;;;;;;2.83;2.03;;;;;;;;;;4992464;28;20023;-67
2023/04/12 02:58:53;;;;;;;3.50;1.87;;;;;;;;;;4992983;28;20053;-66
2023/04/12 03:01:20;;;;;;;10.57;2.77;;;;;;;;;;4993362;28;20022;-66
2023/04/12 03:03:47;;;;;;;3.67;2.70;;;;;;;;;;4993169;28;20038;-66
2023/04/12 03:06:13;;;;;;;2.77;2.47;;;;;;;;;;4992990;28;20022;-66
2023/04/12 03:08:40;;;;;;;4.00;2.70;;;;;;;;;;4988999;28;20030;-67
2023/04/12 03:11:07;;;;;;;4.70;2.17;;;;;;;;;;4988161;28;20030;-66
2023/04/12 03:13:33;;;;;;;4.70;3.10;;;;;;;;;;4988273;28;20058;-66
2023/04/12 03:16:21;;;;;;;4.63;2.43;;;;;;;;;;4987969;28;20505;-67
2023/04/12 03:18:49;;;;;;;4.87;2.70;;;;;;;;;;4992158;28;20045;-66
2023/04/12 03:21:16;;;;;;;4.63;3.27;;;;;;;;;;4993054;28;20057;-66
2023/04/12 03:23:43;;;;;;;6.27;2.40;;;;;;;;;;4993106;28;20441;-66
2023/04/12 03:26:10;;;;;;;2.73;2.10;;;;;;;;;;4993021;28;20041;-66
2023/04/12 03:28:36;;;;;;;6.13;1.90;;;;;;;;;;4992950;28;20018;-66
2023/04/12 03:31:03;;;;;;;2.93;2.03;;;;;;;;;;4988418;28;20019;-66
2023/04/12 03:33:30;;;;;;;5.73;2.93;;;;;;;;;;4987809;28;20022;-66
2023/04/12 03:35:56;;;;;;;2.43;1.83;;;;;;;;;;4987785;28;20053;-66
2023/04/12 03:38:23;;;;;;;3.47;2.67;;;;;;;;;;4987899;28;20057;-68
2023/04/12 03:40:50;;;;;;;5.60;3.07;;;;;;;;;;4991197;28;20563;-66
2023/04/12 03:43:16;;;;;;;2.67;1.97;;;;;;;;;;4992856;28;20022;-67
2023/04/12 03:45:43;;;;;;;6.07;2.87;;;;;;;;;;4992863;28;20382;-66
2023/04/12 03:48:10;;;;;;;6.63;3.27;;;;;;;;;;4992530;28;20029;-66
2023/04/12 03:50:43;;;;;;;2.90;1.87;;;;;;;;;;4992966;28;20027;-66
2023/04/12 03:53:10;;;;;;;3.57;1.90;;;;;;;;;;4989353;28;20027;-66
2023/04/12 03:55:37;;;;;;;6.53;2.67;;;;;;;;;;4987770;28;20038;-66
2023/04/12 03:58:04;;;;;;;8.13;2.40;;;;;;;;;;4987711;28;20034;-67
2023/04/12 04:00:31;;;;;;;3.77;2.63;;;;;;;;;;4989854;28;20018;-67
2023/04/12 04:03:01;;;;;;;8.53;2.87;;;;;;;;;;4994341;28;20014;-67
2023/04/12 04:05:31;;;;;;;4.43;2.67;;;;;;;;;;4996144;28;20049;-66
2023/04/12 04:07:59;;;;;;;3.90;2.27;;;;;;;;;;4996297;28;20358;-66
2023/04/12 04:10:27;;;;;;;3.53;2.00;;;;;;;;;;4996458;28;20019;-66
2023/04/12 04:12:54;;;;;;;3.93;2.70;;;;;;;;;;4996343;28;20019;-66
2023/04/12 04:15:21;;;;;;;9.73;2.60;;;;;;;;;;4993009;28;20037;-66
2023/04/12 04:17:48;;;;;;;3.77;2.40;;;;;;;;;;4991333;28;20385;-66
2023/04/12 04:20:15;;;;;;;4.83;2.90;;;;;;;;;;4991178;28;20026;-66
2023/04/12 04:22:41;;;;;;;4.00;2.63;;;;;;;;;;4991005;28;20112;-66
2023/04/12 04:25:08;;;;;;;4.60;2.00;;;;;;;;;;4993657;28;20023;-66
2023/04/12 04:27:37;;;;;;;4.00;2.60;;;;;;;;;;4996026;28;20093;-67
2023/04/12 04:30:05;;;;;;;3.40;2.47;;;;;;;;;;4995977;28;20049;-66
2023/04/12 04:32:32;;;;;;;3.90;2.70;;;;;;;;;;4996119;28;20133;-67
2023/04/12 04:34:59;;;;;;;2.33;1.80;;;;;;;;;;4995759;28;20077;-66
2023/04/12 04:37:26;;;;;;;3.40;2.20;;;;;;;;;;4993063;28;20077;-67
2023/04/12 04:39:53;;;;;;;3.40;2.47;;;;;;;;;;4991183;28;20027;-66
2023/04/12 04:42:20;;;;;;;2.87;2.10;;;;;;;;;;4990743;28;20034;-67
2023/04/12 04:44:50;;;;;;;3.20;1.80;;;;;;;;;;4990675;28;20030;-66
2023/04/12 04:47:16;;;;;;;4.23;2.90;;;;;;;;;;4992389;28;20378;-66
2023/04/12 04:49:46;;;;;;;2.97;2.07;;;;;;;;;;4995745;28;20124;-67
2023/04/12 04:52:14;;;;;;;3.00;1.90;;;;;;;;;;4995749;28;20501;-67
2023/04/12 04:54:41;;;;;;;5.23;2.07;;;;;;;;;;4995062;28;20505;-67
2023/04/12 04:57:10;;;;;;;3.67;2.17;;;;;;;;;;4995668;28;20027;-67
2023/04/12 04:59:37;;;;;;;4.47;1.93;;;;;;;;;;4993118;28;20385;-67
2023/04/12 05:02:04;;;;;;;2.20;1.80;;;;;;;;;;4990535;28;20373;-66
2023/04/12 05:04:30;;;;;;;2.57;1.87;;;;;;;;;;4990108;28;20026;-67
2023/04/12 05:06:57;;;;;;;2.40;1.67;;;;;;;;;;4990522;28;20026;-67
2023/04/12 05:09:24;;;;;;;2.40;1.70;;;;;;;;;;4991766;28;20540;-67
2023/04/12 05:11:51;;;;;;;3.87;2.37;;;;;;;;;;4994534;28;20033;-67
2023/04/12 05:14:17;;;;;;;3.17;1.70;;;;;;;;;;4994936;28;20096;-67
2023/04/12 05:16:44;;;;;;;4.20;1.93;;;;;;;;;;4995314;28;20034;-66
2023/04/12 05:19:11;;;;;;;1.53;1.20;;;;;;;;;;4995153;28;20038;-66
2023/04/12 05:21:37;;;;;;;1.73;1.53;;;;;;;;;;4993377;28;20093;-67
2023/04/12 05:24:04;;;;;;;2.03;1.47;;;;;;;;;;4990230;28;20032;-66
2023/04/12 05:26:33;;;;;;;2.23;1.60;;;;;;;;;;4990112;28;20030;-66
2023/04/12 05:29:00;;;;;;;7.03;1.97;;;;;;;;;;4990040;28;20027;-67
2023/04/12 05:31:27;;;;;;;2.47;1.70;;;;;;;;;;4990405;28;20037;-66
2023/04/12 05:33:54;;;;;;;1.33;1.00;;;;;;;;;;4994521;28;20038;-66
2023/04/12 05:36:20;;;;;;;1.33;1.20;;;;;;;;;;4994808;28;20081;-67
2023/04/12 05:38:47;;;;;;;2.67;1.87;;;;;;;;;;4994637;28;20373;-66
2023/04/12 05:41:14;;;;;;;4.03;1.47;;;;;;;;;;4994843;28;20073;-66
2023/04/12 05:43:40;;;;;;;11.80;1.80;;;;;;;;;;4993599;28;20030;-66
2023/04/12 05:46:07;;;;;;;3.50;2.57;;;;;;;;;;4989726;28;20208;-66
2023/04/12 05:48:34;;;;;;;1.57;1.30;;;;;;;;;;4989333;28;20065;-66
2023/04/12 05:51:03;;;;;;;2.13;1.43;;;;;;;;;;4989531;28;20030;-67
2023/04/12 05:53:31;;;;;;;2.70;1.87;;;;;;;;;;4989561;28;20026;-67
2023/04/12 05:55:58;;;;;;;2.90;1.83;;;;;;;;;;4994273;28;20085;-66
2023/04/12 05:58:25;;;;;;;3.73;1.50;;;;;;;;;;4994393;28;20477;-66
2023/04/12 06:00:54;;;;;;;2.20;1.80;;;;;;;;;;4994298;28;20482;-66
2023/04/12 06:03:24;;;;;;;1.63;1.27;;;;;;;;;;4994097;28;20029;-66
2023/04/12 06:05:51;;;;;;;2.30;1.60;;;;;;;;;;4993700;28;20022;-66
2023/04/12 06:08:18;;;;;;;4.10;1.40;;;;;;;;;;4989180;28;20023;-66
2023/04/12 06:10:45;;;;;;;2.40;1.50;;;;;;;;;;4989333;28;20026;-66
2023/04/12 06:13:12;;;;;;;1.67;1.10;;;;;;;;;;4989053;28;20437;-66
2023/04/12 06:15:38;;;;;;;1.73;1.33;;;;;;;;;;4988980;28;20493;-66
2023/04/12 06:18:06;;;;;;;1.87;1.37;;;;;;;;;;4993901;28;20441;-66
2023/04/12 06:20:33;;;;;;;1.97;1.27;;;;;;;;;;4993882;28;20030;-66
2023/04/12 06:23:00;;;;;;;1.40;1.07;;;;;;;;;;4992829;28;20061;-66
2023/04/12 06:25:26;;;;;;;2.33;1.37;;;;;;;;;;4993636;28;20019;-66
2023/04/12 06:27:53;;;;;;;1.83;1.00;;;;;;;;;;4994177;28;20366;-66
2023/04/12 06:30:20;;;;;;;1.73;1.27;;;;;;;;;;4988691;28;20026;-66
2023/04/12 06:32:47;;;;;;;2.27;1.10;;;;;;;;;;4988771;28;20026;-66
2023/04/12 06:35:13;;;;;;;1.97;1.27;;;;;;;;;;4988668;28;20445;-66
2023/04/12 06:37:40;;;;;;;1.37;1.20;;;;;;;;;;4988832;28;20077;-66
2023/04/12 06:40:07;;;;;;;1.80;1.40;;;;;;;;;;4992277;28;20032;-66
2023/04/12 06:42:34;;;;;;;1.23;1.07;;;;;;;;;;4993647;28;20030;-66
2023/04/12 06:45:01;;;;;;;1.73;1.13;;;;;;;;;;4993472;28;20567;-66
2023/04/12 06:47:27;;;;;;;1.40;1.20;;;;;;;;;;4993323;28;20022;-66
2023/04/12 06:49:56;;;;;;;2.77;0.73;;;;;;;;;;4993556;28;20037;-66
2023/04/12 06:52:26;;;;;;;2.00;1.50;;;;;;;;;;4988906;28;20161;-66
2023/04/12 06:54:53;;;;;;;0.90;0.60;;;;;;;;;;4988437;28;20030;-66
2023/04/12 06:57:20;;;;;;;1.70;1.20;;;;;;;;;;4988172;28;20489;-65
2023/04/12 06:59:46;;;;;;;1.03;0.93;;;;;;;;;;4988317;28;20029;-65
2023/04/12 07:02:13;;;;;;;3.23;1.27;;;;;;;;;;4991841;28;20084;-64
2023/04/12 07:04:40;;;;;;;1.37;0.93;;;;;;;;;;4992946;28;20027;-63
2023/04/12 07:07:06;;;;;;;1.00;0.90;;;;;;;;;;4993351;28;20022;-63
2023/04/12 07:09:33;;;;;;;1.50;1.00;;;;;;;;;;4993267;28;20530;-63
2023/04/12 07:12:01;;;;;;;0.77;0.70;;;;;;;;;;4993276;28;20062;-63
2023/04/12 07:14:28;;;;;;;1.53;1.10;;;;;;;;;;4989015;28;20030;-64
2023/04/12 07:16:54;;;;;;;0.50;0.50;;;;;;;;;;4988163;28;20110;-64
2023/04/12 07:19:21;;;;;;;1.57;1.10;;;;;;;;;;4988087;28;20062;-63
2023/04/12 07:21:48;;;;;;;2.83;1.30;;;;;;;;;;4987962;28;20026;-64
2023/04/12 07:24:14;;;;;;;1.53;1.23;;;;;;;;;;4990754;28;20022;-64
2023/04/12 07:26:41;;;;;;;0.53;0.53;;;;;;;;;;4993077;28;20102;-64
2023/04/12 07:29:08;;;;;;;1.23;0.93;;;;;;;;;;4992997;28;20030;-63
2023/04/12 07:31:34;;;;;;;1.30;1.03;;;;;;;;;;4992880;28;20022;-64
2023/04/12 07:34:01;;;;;;;1.53;1.10;;;;;;;;;;4992551;28;20022;-65
2023/04/12 07:36:28;;;;;;;1.07;0.90;;;;;;;;;;4994046;28;20029;-65
2023/04/12 07:38:55;;;;;;;1.27;1.07;;;;;;;;;;4991844;28;20022;-65
2023/04/12 07:41:22;;;;;;;2.53;1.40;;;;;;;;;;4992000;28;20022;-65
2023/04/12 07:43:49;;;;;;;2.53;1.17;;;;;;;;;;4991848;28;20034;-65
2023/04/12 07:46:16;;;;;;;1.67;1.27;;;;;;;;;;4993983;28;20441;-66
2023/04/12 07:48:43;;;;;;;1.27;1.10;;;;;;;;;;4996802;28;20042;-66
2023/04/12 07:51:10;;;;;;;1.43;1.20;;;;;;;;;;4996397;28;20030;-67
2023/04/12 07:53:37;;;;;;;1.57;1.37;;;;;;;;;;4996856;28;20026;-67
2023/04/12 07:56:05;;;;;;;1.80;1.53;;;;;;;;;;4996466;28;20034;-67
2023/04/12 07:58:33;;;;;;;1.03;0.83;;;;;;;;;;4994264;28;20074;-68
2023/04/12 08:01:00;;;;;;;2.13;1.43;;;;;;;;;;4991703;28;20481;-68
2023/04/12 08:03:26;;;;;;;1.37;1.20;;;;;;;;;;4991568;28;20553;-68
2023/04/12 08:05:53;;;;;;;1.77;1.37;;;;;;;;;;4991491;28;20045;-68
2023/04/12 08:08:23;;;;;;;3.57;1.77;;;;;;;;;;4992718;28;20027;-68
2023/04/12 08:10:50;;;;;;;2.13;1.53;;;;;;;;;;4996557;28;20022;-68
2023/04/12 08:13:17;;;;;;;1.33;1.17;;;;;;;;;;4996116;28;20481;-68
2023/04/12 08:15:45;;;;;;;1.80;1.37;;;;;;;;;;4996375;28;20060;-68
2023/04/12 08:18:12;;;;;;;1.33;1.10;;;;;;;;;;4996219;28;20037;-69
2023/04/12 08:20:46;;;;;;;2.63;1.33;;;;;;;;;;4994260;28;20486;-68
2023/04/12 08:23:12;;;;;;;2.20;1.53;;;;;;;;;;4991000;28;20489;-68
2023/04/12 08:25:39;;;;;;;2.37;1.70;;;;;;;;;;4991236;28;20030;-68
2023/04/12 08:28:07;;;;;;;1.63;1.30;;;;;;;;;;4991108;28;20029;-68
2023/04/12 08:30:34;;;;;;;2.20;1.57;;;;;;;;;;4992291;28;20038;-68
2023/04/12 08:33:01;;;;;;;2.83;1.30;;;;;;;;;;4995898;28;20022;-68
2023/04/12 08:35:27;;;;;;;3.73;1.20;;;;;;;;;;4995906;28;20144;-69
2023/04/12 08:37:54;;;;;;;2.10;1.60;;;;;;;;;;4995926;28;20038;-68
2023/04/12 08:40:21;;;;;;;2.43;1.80;;;;;;;;;;4995604;28;20061;-68
2023/04/12 08:42:48;;;;;;;2.67;1.73;;;;;;;;;;4994158;28;20089;-69
2023/04/12 08:45:15;;;;;;;1.57;1.30;;;;;;;;;;4990857;28;20034;-69
2023/04/12 08:47:42;;;;;;;2.63;1.77;;;;;;;;;;4989508;28;20106;-69
2023/04/12 08:50:12;;;;;;;1.73;1.37;;;;;;;;;;4990780;28;20027;-68
2023/04/12 08:52:39;;;;;;;1.77;1.37;;;;;;;;;;4991568;28;20046;-68
2023/04/12 08:55:06;;;;;;;2.07;1.27;;;;;;;;;;4995360;28;20042;-68
2023/04/12 08:57:35;;;;;;;2.23;1.53;;;;;;;;;;4995552;28;20022;-68
2023/04/12 09:00:02;;;;;;;1.97;1.37;;;;;;;;;;4995554;28;20026;-68
2023/04/12 09:02:29;;;;;;;6.50;1.63;;;;;;;;;;4995453;28;20026;-68
2023/04/12 09:04:57;;;;;;;1.73;1.40;;;;;;;;;;4994214;28;20027;-69
2023/04/12 09:07:26;;;;;;;2.20;1.67;;;;;;;;;;4990514;28;20466;-68
2023/04/12 09:09:53;;;;;;;1.70;1.37;;;;;;;;;;4990442;28;20029;-68
2023/04/12 09:12:22;;;;;;;1.77;1.27;;;;;;;;;;4989953;28;20544;-68
2023/04/12 09:15:07;;;;;;;3.13;2.00;;;;;;;;;;4990519;28;20034;-69
2023/04/12 09:17:35;;;;;;;1.97;1.27;;;;;;;;;;4995176;28;20034;-69
2023/04/12 09:20:06;;;;;;;2.57;1.87;;;;;;;;;;4995113;28;20256;-69
2023/04/12 09:22:34;;;;;;;2.80;1.77;;;;;;;;;;4994926;28;20030;-69
2023/04/12 09:25:00;;;;;;;3.23;2.37;;;;;;;;;;4994578;28;20022;-69
2023/04/12 09:27:28;;;;;;;4.17;2.17;;;;;;;;;;4993413;28;20121;-68
2023/04/12 09:30:10;;;;;;;2.23;1.53;;;;;;;;;;4989904;28;20488;-68
2023/04/12 09:32:37;;;;;;;3.07;1.70;;;;;;;;;;4989856;28;20026;-69
2023/04/12 09:35:04;;;;;;;6.30;2.30;;;;;;;;;;4989922;28;20038;-69
2023/04/12 09:37:31;;;;;;;2.63;1.63;;;;;;;;;;4990576;28;20400;-69
2023/04/12 09:40:01;;;;;;;2.73;1.67;;;;;;;;;;4994818;28;20076;-69
2023/04/12 09:42:28;;;;;;;3.70;2.17;;;;;;;;;;4994903;28;20485;-69
2023/04/12 09:44:56;;;;;;;3.43;1.60;;;;;;;;;;4994636;28;20367;-69
2023/04/12 09:47:23;;;;;;;1.33;1.17;;;;;;;;;;4994609;28;20117;-69
2023/04/12 09:49:50;;;;;;;1.90;1.60;;;;;;;;;;4992843;28;20025;-69
2023/04/12 09:52:17;;;;;;;1.40;1.20;;;;;;;;;;4989689;28;20033;-69
2023/04/12 09:54:44;;;;;;;4.40;1.50;;;;;;;;;;4989111;28;20030;-69
2023/04/12 09:57:12;;;;;;;3.43;2.03;;;;;;;;;;4989091;28;20029;-69
2023/04/12 09:59:40;;;;;;;2.13;1.40;;;;;;;;;;4990292;28;20033;-69
2023/04/12 10:02:17;;;;;;;3.33;1.93;;;;;;;;;;4994256;28;20373;-69
2023/04/12 10:04:44;;;;;;;1.67;1.27;;;;;;;;;;4994365;28;20026;-69
2023/04/12 10:07:11;;;;;;;1.63;1.23;;;;;;;;;;4994052;28;20093;-69
2023/04/12 10:09:39;;;;;;;1.73;1.23;;;;;;;;;;4994211;28;20024;-69
2023/04/12 10:12:07;;;;;;;11.13;1.77;;;;;;;;;;4992569;28;20338;-69
2023/04/12 10:14:33;;;;;;;2.50;1.63;;;;;;;;;;4989137;28;20469;-69
2023/04/12 10:17:01;;;;;;;1.83;1.47;;;;;;;;;;4989204;28;20427;-69
2023/04/12 10:19:28;;;;;;;3.13;1.47;;;;;;;;;;4989119;28;20080;-69
2023/04/12 10:21:58;;;;;;;1.87;1.33;;;;;;;;;;4989692;28;20088;-69
2023/04/12 10:24:25;;;;;;;1.67;1.10;;;;;;;;;;4993772;28;20010;-69
2023/04/12 10:26:54;;;;;;;1.43;1.33;;;;;;;;;;4993954;28;20057;-69
2023/04/12 10:29:32;;;;;;;1.60;1.40;;;;;;;;;;4993733;28;20044;-69
2023/04/12 10:32:19;;;;;;;2.93;1.47;;;;;;;;;;4993835;28;20026;-69
2023/04/12 10:34:50;;;;;;;2.07;1.53;;;;;;;;;;4991652;28;20026;-69
2023/04/12 10:37:17;;;;;;;3.23;1.77;;;;;;;;;;4988883;28;20022;-69
2023/04/12 10:39:46;;;;;;;1.50;1.20;;;;;;;;;;4988687;28;20022;-69
2023/04/12 10:42:23;;;;;;;3.33;2.13;;;;;;;;;;4988751;28;20053;-69
2023/04/12 10:45:10;;;;;;;1.57;1.20;;;;;;;;;;4990262;28;20053;-69
2023/04/12 10:47:48;;;;;;;1.90;1.50;;;;;;;;;;4980202;28;20043;-69
2023/04/12 10:50:23;;;;;;;1.23;1.10;;;;;;;;;;4993458;28;20041;-69
2023/04/12 10:53:08;;;;;;;3.03;2.08;;;;;;;;;;4993271;28;20557;-69
2023/04/12 10:55:37;;;;;;;1.85;1.48;;;;;;;;;;4993411;28;20320;-69
2023/04/12 10:58:03;;;;;;;4.87;1.97;;;;;;;;;;4989395;28;20026;-69
2023/04/12 11:00:48;;;;;;;2.03;1.53;;;;;;;;;;4988466;28;20109;-69
2023/04/12 11:03:16;;;;;;;1.67;1.05;;;;;;;;;;4987989;28;20105;-69
2023/04/12 11:06:02;;;;;;;2.20;1.73;;;;;;;;;;4988218;28;20466;-69
2023/04/12 11:08:28;;;;;;;;;;;;;;;;;;4993374;28;20386;-69
2023/04/12 11:11:05;;;;;;;1.63;1.33;;;;;;;;;;4992720;28;20417;-69
2023/04/12 11:13:35;;;;;;;1.23;1.03;;;;;;;;;;4992810;28;20033;-69
2023/04/12 11:16:06;;;;;;;1.80;1.13;;;;;;;;;;4993124;28;20042;-69
2023/04/12 11:18:36;;;;;;;2.97;1.97;;;;;;;;;;4992968;28;20025;-69
2023/04/12 11:21:05;;;;;;;2.70;1.83;;;;;;;;;;4987992;28;20066;-69
2023/04/12 11:23:35;;;;;;;1.07;0.97;;;;;;;;;;4988020;28;20061;-69
2023/04/12 11:26:03;;;;;;;4.63;1.40;;;;;;;;;;4987636;28;20109;-69
2023/04/12 11:28:30;;;;;;;2.47;1.70;;;;;;;;;;4988163;28;20030;-69
2023/04/12 11:30:57;;;;;;;4.17;1.83;;;;;;;;;;4992765;28;20029;-69
2023/04/12 11:33:33;;;;;;;1.20;1.10;;;;;;;;;;4992963;28;20027;-69
2023/04/12 11:36:03;;;;;;;2.80;1.80;;;;;;;;;;4993037;28;20034;-69
2023/04/12 11:38:30;;;;;;;2.27;1.73;;;;;;;;;;4992630;28;20018;-69
2023/04/12 11:40:56;;;;;;;2.30;1.63;;;;;;;;;;4992293;28;20030;-69
2023/04/12 11:43:23;;;;;;;2.20;1.70;;;;;;;;;;4987692;28;20030;-69
2023/04/12 11:45:55;;;;;;;2.50;1.53;;;;;;;;;;4987848;28;20035;-69
2023/04/12 11:48:21;;;;;;;1.57;1.37;;;;;;;;;;4987863;28;20401;-69
2023/04/12 11:50:48;;;;;;;2.93;1.93;;;;;;;;;;4987979;28;20019;-69
2023/04/12 11:53:16;;;;;;;3.30;1.90;;;;;;;;;;4992539;28;20022;-69
2023/04/12 11:55:54;;;;;;;3.60;2.03;;;;;;;;;;4992260;28;20042;-69
2023/04/12 11:58:26;;;;;;;1.67;1.57;;;;;;;;;;4992854;28;20474;-69
2023/04/12 12:00:55;;;;;;;9.47;1.77;;;;;;;;;;4992675;28;20019;-69
2023/04/12 12:03:21;;;;;;;2.17;1.50;;;;;;;;;;4992150;28;20512;-69
2023/04/12 12:05:48;;;;;;;2.63;1.47;;;;;;;;;;4987825;28;20052;-69
2023/04/12 12:08:15;;;;;;;8.43;2.47;;;;;;;;;;4987379;28;20031;-69
2023/04/12 12:10:42;;;;;;;2.47;1.53;;;;;;;;;;4987750;28;20034;-69
2023/04/12 12:13:10;;;;;;;1.87;1.60;;;;;;;;;;4987454;28;20040;-69
2023/04/12 12:15:37;;;;;;;3.13;2.37;;;;;;;;;;4992310;28;20041;-69
2023/04/12 12:18:03;;;;;;;1.63;1.20;;;;;;;;;;4992371;28;20093;-69
2023/04/12 12:20:30;;;;;;;4.40;2.13;;;;;;;;;;4992949;28;20027;-69
2023/04/12 12:22:57;;;;;;;2.53;2.00;;;;;;;;;;4996031;28;20385;-69
2023/04/12 12:25:23;;;;;;;2.37;1.80;;;;;;;;;;4995805;28;20096;-69
2023/04/12 12:27:57;;;;;;;3.37;2.27;;;;;;;;;;4991069;28;20030;-69
2023/04/12 12:30:24;;;;;;;4.97;2.70;;;;;;;;;;4990869;28;20045;-69
2023/04/12 12:32:51;;;;;;;2.83;1.83;;;;;;;;;;4991048;28;20474;-69
2023/04/12 12:35:18;;;;;;;3.03;2.27;;;;;;;;;;4990845;28;20026;-69
2023/04/12 12:37:57;;;;;;;3.70;2.00;;;;;;;;;;4995378;28;20026;-69
2023/04/12 12:40:33;;;;;;;2.20;1.50;;;;;;;;;;4995844;28;20050;-69
2023/04/12 12:43:00;;;;;;;2.57;1.80;;;;;;;;;;4995847;28;20050;-69
2023/04/12 12:45:28;;;;;;;4.67;2.50;;;;;;;;;;4995570;28;20114;-69
2023/04/12 12:47:59;;;;;;;2.63;1.87;;;;;;;;;;4995200;28;20033;-69
2023/04/12 12:50:26;;;;;;;4.13;2.70;;;;;;;;;;4990815;28;20579;-69
2023/04/12 12:52:54;;;;;;;2.93;1.63;;;;;;;;;;4990181;28;20080;-69
2023/04/12 12:55:21;;;;;;;2.17;1.67;;;;;;;;;;4990649;28;20088;-69
2023/04/12 12:57:49;;;;;;;2.10;1.63;;;;;;;;;;4990641;28;20054;-69
2023/04/12 13:00:16;;;;;;;4.73;2.13;;;;;;;;;;4995454;28;20037;-69
2023/04/12 13:02:43;;;;;;;3.53;2.50;;;;;;;;;;4995488;28;20119;-69
2023/04/12 13:05:10;;;;;;;4.80;2.60;;;;;;;;;;4995089;28;20109;-69
2023/04/12 13:07:37;;;;;;;2.73;2.17;;;;;;;;;;4995394;28;20030;-69
2023/04/12 13:10:04;;;;;;;5.47;2.57;;;;;;;;;;4994972;28;20029;-69
2023/04/12 13:12:31;;;;;;;2.60;1.90;;;;;;;;;;4990201;28;20041;-69
2023/04/12 13:15:00;;;;;;;3.47;2.10;;;;;;;;;;4990146;28;20022;-69
2023/04/12 13:17:27;;;;;;;3.10;2.47;;;;;;;;;;4990352;28;20030;-69
2023/04/12 13:19:55;;;;;;;3.63;2.67;;;;;;;;;;4990119;28;20389;-69
2023/04/12 13:22:21;;;;;;;3.73;2.50;;;;;;;;;;4994244;28;20022;-69
2023/04/12 13:24:48;;;;;;;5.07;3.00;;;;;;;;;;4994588;28;20109;-69
2023/04/12 13:27:16;;;;;;;2.23;1.90;;;;;;;;;;4995075;28;20027;-69
2023/04/12 13:29:42;;;;;;;3.37;1.90;;;;;;;;;;4994951;28;20477;-69
2023/04/12 13:32:09;;;;;;;5.10;1.83;;;;;;;;;;4994404;28;20026;-69
2023/04/12 13:34:36;;;;;;;2.03;1.60;;;;;;;;;;4990062;28;20113;-70
2023/04/12 13:37:02;;;;;;;2.47;1.63;;;;;;;;;;4989865;28;20385;-70
2023/04/12 13:39:31;;;;;;;6.67;2.07;;;;;;;;;;4989704;28;20032;-69
2023/04/12 13:41:58;;;;;;;1.53;1.33;;;;;;;;;;4989314;28;20026;-69
2023/04/12 13:44:26;;;;;;;5.27;2.10;;;;;;;;;;4993437;28;20038;-69
2023/04/12 13:46:53;;;;;;;3.07;2.00;;;;;;;;;;4994732;28;20038;-69
2023/04/12 13:49:20;;;;;;;1.90;1.60;;;;;;;;;;4994711;28;20351;-69
2023/04/12 13:51:46;;;;;;;1.73;1.13;;;;;;;;;;4994454;28;20381;-69
2023/04/12 13:54:14;;;;;;;1.17;1.07;;;;;;;;;;4994516;28;20049;-69
2023/04/12 13:56:41;;;;;;;2.93;1.60;;;;;;;;;;4990142;28;20026;-69
2023/04/12 13:59:08;;;;;;;2.23;1.33;;;;;;;;;;4989217;28;20076;-69
2023/04/12 14:01:35;;;;;;;3.53;1.60;;;;;;;;;;4989028;28;20033;-69
2023/04/12 14:04:02;;;;;;;3.73;2.47;;;;;;;;;;4989351;28;20370;-70
2023/04/12 14:06:30;;;;;;;1.97;1.40;;;;;;;;;;4992487;28;20030;-69
2023/04/12 14:08:57;;;;;;;3.63;2.37;;;;;;;;;;4994158;28;20690;-69
2023/04/12 14:11:24;;;;;;;2.13;1.57;;;;;;;;;;4994160;28;20124;-69
2023/04/12 14:13:51;;;;;;;3.07;2.50;;;;;;;;;;4993906;28;20486;-69
2023/04/12 14:16:17;;;;;;;1.77;1.50;;;;;;;;;;4993901;28;20030;-69
2023/04/12 14:18:44;;;;;;;2.77;1.90;;;;;;;;;;4990258;28;20109;-69
2023/04/12 14:21:11;;;;;;;4.07;2.50;;;;;;;;;;4988945;28;20022;-69
2023/04/12 14:23:37;;;;;;;2.60;2.00;;;;;;;;;;4988904;28;20014;-69
2023/04/12 14:26:04;;;;;;;3.93;2.67;;;;;;;;;;4988901;28;20033;-70
2023/04/12 14:28:33;;;;;;;2.53;1.80;;;;;;;;;;4991353;28;20019;-70
2023/04/12 14:31:00;;;;;;;1.43;1.20;;;;;;;;;;4993689;28;20029;-70
2023/04/12 14:33:28;;;;;;;3.83;2.77;;;;;;;;;;4993737;28;20097;-70
2023/04/12 14:35:56;;;;;;;2.53;1.80;;;;;;;;;;4993304;28;20026;-70
2023/04/12 14:38:23;;;;;;;2.97;2.07;;;;;;;;;;4993757;28;20026;-70
2023/04/12 14:40:50;;;;;;;2.17;1.63;;;;;;;;;;4990904;28;20470;-70
2023/04/12 14:43:17;;;;;;;4.43;1.40;;;;;;;;;;4988500;28;20027;-70
2023/04/12 14:45:44;;;;;;;3.03;1.70;;;;;;;;;;4987520;28;20040;-70
2023/04/12 14:48:11;;;;;;;3.20;1.50;;;;;;;;;;4988561;28;20022;-70